Terminal Aerodrome Forecast
Issued by NWS Missoula, MT

Home | Current Version | Previous Version | Text Only | Print | Product List | Glossary On
Versions: 1 2 3 4 5 6 7 8 9 10 11 12 13 14 15 16 17 18
000
FTUS45 KMSO 211700
TAFBTM
TAF
KBTM 211740Z 2118/2218 00000KT P6SM VCSH OVC060
     FM211900 33005KT P6SM VCTS BKN080CB
     FM220500 14004KT P6SM VCSH BKN080
     FM221300 VRB04KT 6SM -SHRA VCTS BKN030 OVC050CB=

USA.gov is the U.S. government's official web portal to all federal, state and local government web resources and services.